sensor_id;sensor_type;location;lat;lon;timestamp;temperature;humidity
8103;DHT22;4094;49.948;11.574;2022-09-09T00:01:27;19.20;56.10
8103;DHT22;4094;49.948;11.574;2022-09-09T00:04:02;19.20;56.30
8103;DHT22;4094;49.948;11.574;2022-09-09T00:06:42;19.20;56.50
8103;DHT22;4094;49.948;11.574;2022-09-09T00:09:13;19.20;56.30
8103;DHT22;4094;49.948;11.574;2022-09-09T00:11:52;19.10;56.20
8103;DHT22;4094;49.948;11.574;2022-09-09T00:14:36;19.10;56.20
8103;DHT22;4094;49.948;11.574;2022-09-09T00:17:09;19.10;56.20
8103;DHT22;4094;49.948;11.574;2022-09-09T00:19:45;19.20;56.20
8103;DHT22;4094;49.948;11.574;2022-09-09T00:22:20;19.10;56.10
8103;DHT22;4094;49.948;11.574;2022-09-09T00:24:53;19.10;56.20
8103;DHT22;4094;49.948;11.574;2022-09-09T00:27:28;19.10;56.20
8103;DHT22;4094;49.948;11.574;2022-09-09T00:30:12;19.10;56.40
8103;DHT22;4094;49.948;11.574;2022-09-09T00:32:41;19.00;56.40
8103;DHT22;4094;49.948;11.574;2022-09-09T00:35:17;19.00;56.50
8103;DHT22;4094;49.948;11.574;2022-09-09T00:37:48;19.00;56.60
8103;DHT22;4094;49.948;11.574;2022-09-09T00:40:24;19.00;56.70
8103;DHT22;4094;49.948;11.574;2022-09-09T00:43:14;18.90;56.70
8103;DHT22;4094;49.948;11.574;2022-09-09T00:48:54;18.90;56.70
8103;DHT22;4094;49.948;11.574;2022-09-09T00:51:39;18.90;56.90
8103;DHT22;4094;49.948;11.574;2022-09-09T00:54:29;18.90;56.80
8103;DHT22;4094;49.948;11.574;2022-09-09T00:57:12;18.90;57.00
8103;DHT22;4094;49.948;11.574;2022-09-09T00:59:48;18.90;56.90
8103;DHT22;4094;49.948;11.574;2022-09-09T01:02:26;18.90;57.00
8103;DHT22;4094;49.948;11.574;2022-09-09T01:05:03;18.80;56.90
8103;DHT22;4094;49.948;11.574;2022-09-09T01:07:37;18.90;56.90
8103;DHT22;4094;49.948;11.574;2022-09-09T01:10:10;18.80;56.80
8103;DHT22;4094;49.948;11.574;2022-09-09T01:12:47;18.80;56.90
8103;DHT22;4094;49.948;11.574;2022-09-09T01:15:26;18.80;56.90
8103;DHT22;4094;49.948;11.574;2022-09-09T01:18:01;18.80;57.00
8103;DHT22;4094;49.948;11.574;2022-09-09T01:20:39;18.80;57.00
8103;DHT22;4094;49.948;11.574;2022-09-09T01:23:25;18.80;57.00
8103;DHT22;4094;49.948;11.574;2022-09-09T01:26:15;18.80;57.10
8103;DHT22;4094;49.948;11.574;2022-09-09T01:28:48;18.80;57.00
8103;DHT22;4094;49.948;11.574;2022-09-09T01:31:20;18.70;57.00
8103;DHT22;4094;49.948;11.574;2022-09-09T01:33:51;18.70;56.90
8103;DHT22;4094;49.948;11.574;2022-09-09T01:36:29;18.70;57.00
8103;DHT22;4094;49.948;11.574;2022-09-09T01:39:01;18.70;57.10
8103;DHT22;4094;49.948;11.574;2022-09-09T01:41:36;18.70;57.10
8103;DHT22;4094;49.948;11.574;2022-09-09T01:44:10;18.70;57.20
8103;DHT22;4094;49.948;11.574;2022-09-09T01:46:43;18.70;57.20
8103;DHT22;4094;49.948;11.574;2022-09-09T01:49:19;18.60;57.20
8103;DHT22;4094;49.948;11.574;2022-09-09T01:51:50;18.70;57.30
8103;DHT22;4094;49.948;11.574;2022-09-09T01:54:28;18.60;57.30
8103;DHT22;4094;49.948;11.574;2022-09-09T01:57:08;18.60;57.90
8103;DHT22;4094;49.948;11.574;2022-09-09T01:59:54;18.60;57.50
8103;DHT22;4094;49.948;11.574;2022-09-09T02:02:38;18.60;57.50
8103;DHT22;4094;49.948;11.574;2022-09-09T02:05:27;18.60;57.50
8103;DHT22;4094;49.948;11.574;2022-09-09T02:08:03;18.60;57.70
8103;DHT22;4094;49.948;11.574;2022-09-09T02:10:53;18.60;57.70
8103;DHT22;4094;49.948;11.574;2022-09-09T02:13:37;18.50;57.70
8103;DHT22;4094;49.948;11.574;2022-09-09T02:16:14;18.50;57.70
8103;DHT22;4094;49.948;11.574;2022-09-09T02:18:50;18.60;57.70
8103;DHT22;4094;49.948;11.574;2022-09-09T02:21:28;18.50;57.80
8103;DHT22;4094;49.948;11.574;2022-09-09T02:24:00;18.50;57.90
8103;DHT22;4094;49.948;11.574;2022-09-09T02:26:39;18.50;57.80
8103;DHT22;4094;49.948;11.574;2022-09-09T02:29:14;18.50;57.80
8103;DHT22;4094;49.948;11.574;2022-09-09T02:31:44;18.50;57.90
8103;DHT22;4094;49.948;11.574;2022-09-09T02:34:20;18.50;57.90
8103;DHT22;4094;49.948;11.574;2022-09-09T02:36:54;18.40;57.90
8103;DHT22;4094;49.948;11.574;2022-09-09T02:39:24;18.40;57.90
8103;DHT22;4094;49.948;11.574;2022-09-09T02:41:53;18.40;58.10
8103;DHT22;4094;49.948;11.574;2022-09-09T02:44:30;18.40;58.20
8103;DHT22;4094;49.948;11.574;2022-09-09T02:47:10;18.40;58.40
8103;DHT22;4094;49.948;11.574;2022-09-09T02:49:52;18.40;58.50
8103;DHT22;4094;49.948;11.574;2022-09-09T02:52:30;18.40;58.60
8103;DHT22;4094;49.948;11.574;2022-09-09T02:55:08;18.40;58.60
8103;DHT22;4094;49.948;11.574;2022-09-09T02:57:40;18.40;58.60
8103;DHT22;4094;49.948;11.574;2022-09-09T03:00:13;18.40;58.60
8103;DHT22;4094;49.948;11.574;2022-09-09T03:02:42;18.40;58.50
8103;DHT22;4094;49.948;11.574;2022-09-09T03:05:13;18.40;58.50
8103;DHT22;4094;49.948;11.574;2022-09-09T03:07:42;18.40;58.60
8103;DHT22;4094;49.948;11.574;2022-09-09T03:10:12;18.40;58.70
8103;DHT22;4094;49.948;11.574;2022-09-09T03:12:42;18.30;58.70
8103;DHT22;4094;49.948;11.574;2022-09-09T03:15:14;18.30;58.70
8103;DHT22;4094;49.948;11.574;2022-09-09T03:17:43;18.40;58.80
8103;DHT22;4094;49.948;11.574;2022-09-09T03:20:13;18.40;58.80
8103;DHT22;4094;49.948;11.574;2022-09-09T03:22:43;18.40;58.80
8103;DHT22;4094;49.948;11.574;2022-09-09T03:25:14;18.30;58.80
8103;DHT22;4094;49.948;11.574;2022-09-09T03:27:43;18.40;58.90
8103;DHT22;4094;49.948;11.574;2022-09-09T03:30:15;18.40;59.00
8103;DHT22;4094;49.948;11.574;2022-09-09T03:32:45;18.40;59.20
8103;DHT22;4094;49.948;11.574;2022-09-09T03:35:16;18.40;58.60
8103;DHT22;4094;49.948;11.574;2022-09-09T03:37:45;18.40;59.20
8103;DHT22;4094;49.948;11.574;2022-09-09T03:40:15;18.40;59.20
8103;DHT22;4094;49.948;11.574;2022-09-09T03:42:46;18.40;59.20
8103;DHT22;4094;49.948;11.574;2022-09-09T03:45:18;18.40;59.20
8103;DHT22;4094;49.948;11.574;2022-09-09T03:47:47;18.50;59.30
8103;DHT22;4094;49.948;11.574;2022-09-09T03:50:17;18.50;59.30
8103;DHT22;4094;49.948;11.574;2022-09-09T03:52:48;18.50;60.00
8103;DHT22;4094;49.948;11.574;2022-09-09T03:55:21;18.50;60.20
8103;DHT22;4094;49.948;11.574;2022-09-09T03:57:51;18.50;60.10
8103;DHT22;4094;49.948;11.574;2022-09-09T04:00:21;18.60;59.80
8103;DHT22;4094;49.948;11.574;2022-09-09T04:02:52;18.60;59.70
8103;DHT22;4094;49.948;11.574;2022-09-09T04:05:22;18.60;59.70
8103;DHT22;4094;49.948;11.574;2022-09-09T04:07:51;18.60;59.70
8103;DHT22;4094;49.948;11.574;2022-09-09T04:10:22;18.60;59.60
8103;DHT22;4094;49.948;11.574;2022-09-09T04:12:52;18.60;59.70
8103;DHT22;4094;49.948;11.574;2022-09-09T04:15:23;18.70;59.70
8103;DHT22;4094;49.948;11.574;2022-09-09T04:17:52;18.70;59.80
8103;DHT22;4094;49.948;11.574;2022-09-09T04:20:21;18.60;59.80
8103;DHT22;4094;49.948;11.574;2022-09-09T04:22:51;18.60;59.90
8103;DHT22;4094;49.948;11.574;2022-09-09T04:25:22;18.60;60.00
8103;DHT22;4094;49.948;11.574;2022-09-09T04:27:53;18.60;60.10
8103;DHT22;4094;49.948;11.574;2022-09-09T04:30:25;18.60;60.10
8103;DHT22;4094;49.948;11.574;2022-09-09T04:32:56;18.60;60.10
8103;DHT22;4094;49.948;11.574;2022-09-09T04:35:25;18.60;60.10
8103;DHT22;4094;49.948;11.574;2022-09-09T04:37:56;18.60;60.10
8103;DHT22;4094;49.948;11.574;2022-09-09T04:40:26;18.70;60.10
8103;DHT22;4094;49.948;11.574;2022-09-09T04:42:57;18.60;60.10
8103;DHT22;4094;49.948;11.574;2022-09-09T04:45:27;18.60;60.10
8103;DHT22;4094;49.948;11.574;2022-09-09T04:47:57;18.60;60.30
8103;DHT22;4094;49.948;11.574;2022-09-09T04:50:26;18.60;60.30
8103;DHT22;4094;49.948;11.574;2022-09-09T04:53:00;18.60;60.40
8103;DHT22;4094;49.948;11.574;2022-09-09T04:55:30;18.60;60.60
8103;DHT22;4094;49.948;11.574;2022-09-09T04:58:03;18.50;60.60
8103;DHT22;4094;49.948;11.574;2022-09-09T05:00:35;18.50;60.80
8103;DHT22;4094;49.948;11.574;2022-09-09T05:03:07;18.50;60.90
8103;DHT22;4094;49.948;11.574;2022-09-09T05:05:37;18.50;61.00
8103;DHT22;4094;49.948;11.574;2022-09-09T05:08:07;18.50;61.20
8103;DHT22;4094;49.948;11.574;2022-09-09T05:10:37;18.50;62.10
8103;DHT22;4094;49.948;11.574;2022-09-09T05:13:07;18.50;62.50
8103;DHT22;4094;49.948;11.574;2022-09-09T05:15:38;18.50;62.70
8103;DHT22;4094;49.948;11.574;2022-09-09T05:18:08;18.50;62.40
8103;DHT22;4094;49.948;11.574;2022-09-09T05:20:37;18.50;62.10
8103;DHT22;4094;49.948;11.574;2022-09-09T05:23:07;18.60;62.00
8103;DHT22;4094;49.948;11.574;2022-09-09T05:25:40;18.60;61.80
8103;DHT22;4094;49.948;11.574;2022-09-09T05:28:10;18.60;61.80
8103;DHT22;4094;49.948;11.574;2022-09-09T05:30:41;18.60;61.70
8103;DHT22;4094;49.948;11.574;2022-09-09T05:33:11;18.60;61.70
8103;DHT22;4094;49.948;11.574;2022-09-09T05:35:40;18.60;61.70
8103;DHT22;4094;49.948;11.574;2022-09-09T05:38:09;18.60;61.80
8103;DHT22;4094;49.948;11.574;2022-09-09T05:40:38;18.70;61.80
8103;DHT22;4094;49.948;11.574;2022-09-09T05:43:10;18.60;62.60
8103;DHT22;4094;49.948;11.574;2022-09-09T05:45:42;18.70;62.70
8103;DHT22;4094;49.948;11.574;2022-09-09T05:48:10;18.70;62.30
8103;DHT22;4094;49.948;11.574;2022-09-09T05:50:39;18.70;63.00
8103;DHT22;4094;49.948;11.574;2022-09-09T05:53:09;18.80;62.20
8103;DHT22;4094;49.948;11.574;2022-09-09T05:55:39;18.80;62.40
8103;DHT22;4094;49.948;11.574;2022-09-09T05:58:08;18.80;62.50
8103;DHT22;4094;49.948;11.574;2022-09-09T06:00:41;18.80;62.30
8103;DHT22;4094;49.948;11.574;2022-09-09T06:03:12;18.90;62.30
8103;DHT22;4094;49.948;11.574;2022-09-09T06:05:43;18.90;62.20
8103;DHT22;4094;49.948;11.574;2022-09-09T06:08:13;18.90;62.10
8103;DHT22;4094;49.948;11.574;2022-09-09T06:10:42;18.90;61.80
8103;DHT22;4094;49.948;11.574;2022-09-09T06:13:12;19.00;61.90
8103;DHT22;4094;49.948;11.574;2022-09-09T06:15:50;19.00;61.80
8103;DHT22;4094;49.948;11.574;2022-09-09T06:18:20;19.00;62.20
8103;DHT22;4094;49.948;11.574;2022-09-09T06:20:56;19.00;61.90
8103;DHT22;4094;49.948;11.574;2022-09-09T06:23:27;19.00;62.10
8103;DHT22;4094;49.948;11.574;2022-09-09T06:26:04;19.00;61.70
8103;DHT22;4094;49.948;11.574;2022-09-09T06:28:35;19.00;61.50
8103;DHT22;4094;49.948;11.574;2022-09-09T06:31:09;19.00;61.50
8103;DHT22;4094;49.948;11.574;2022-09-09T06:33:40;19.00;61.60
8103;DHT22;4094;49.948;11.574;2022-09-09T06:36:13;19.00;61.60
8103;DHT22;4094;49.948;11.574;2022-09-09T06:38:43;19.10;61.60
8103;DHT22;4094;49.948;11.574;2022-09-09T06:41:15;19.10;61.90
8103;DHT22;4094;49.948;11.574;2022-09-09T06:43:46;19.10;62.00
8103;DHT22;4094;49.948;11.574;2022-09-09T06:46:19;19.20;62.30
8103;DHT22;4094;49.948;11.574;2022-09-09T06:48:51;19.30;62.60
8103;DHT22;4094;49.948;11.574;2022-09-09T06:51:25;19.40;62.30
8103;DHT22;4094;49.948;11.574;2022-09-09T06:53:56;19.50;62.10
8103;DHT22;4094;49.948;11.574;2022-09-09T06:56:29;19.70;61.60
8103;DHT22;4094;49.948;11.574;2022-09-09T06:59:03;19.80;61.20
8103;DHT22;4094;49.948;11.574;2022-09-09T07:01:37;19.80;60.80
8103;DHT22;4094;49.948;11.574;2022-09-09T07:04:20;19.90;60.20
8103;DHT22;4094;49.948;11.574;2022-09-09T07:06:49;19.90;60.00
8103;DHT22;4094;49.948;11.574;2022-09-09T07:09:24;19.90;60.10
8103;DHT22;4094;49.948;11.574;2022-09-09T07:11:54;19.80;60.30
8103;DHT22;4094;49.948;11.574;2022-09-09T07:14:29;19.80;60.40
8103;DHT22;4094;49.948;11.574;2022-09-09T07:17:02;19.80;60.30
8103;DHT22;4094;49.948;11.574;2022-09-09T07:19:37;19.80;61.20
8103;DHT22;4094;49.948;11.574;2022-09-09T07:22:07;19.80;60.90
8103;DHT22;4094;49.948;11.574;2022-09-09T07:24:37;19.80;60.90
8103;DHT22;4094;49.948;11.574;2022-09-09T07:27:07;19.80;60.80
8103;DHT22;4094;49.948;11.574;2022-09-09T07:29:37;19.70;60.50
8103;DHT22;4094;49.948;11.574;2022-09-09T07:32:08;19.70;60.50
8103;DHT22;4094;49.948;11.574;2022-09-09T07:34:38;19.70;60.80
8103;DHT22;4094;49.948;11.574;2022-09-09T07:37:07;19.70;60.70
8103;DHT22;4094;49.948;11.574;2022-09-09T07:39:42;19.70;61.00
8103;DHT22;4094;49.948;11.574;2022-09-09T07:42:12;19.80;61.20
8103;DHT22;4094;49.948;11.574;2022-09-09T07:44:42;19.80;60.80
8103;DHT22;4094;49.948;11.574;2022-09-09T07:47:16;19.90;61.40
8103;DHT22;4094;49.948;11.574;2022-09-09T07:49:47;19.90;61.30
8103;DHT22;4094;49.948;11.574;2022-09-09T07:52:22;19.90;61.70
8103;DHT22;4094;49.948;11.574;2022-09-09T07:54:57;20.00;61.10
8103;DHT22;4094;49.948;11.574;2022-09-09T07:57:29;20.10;61.40
8103;DHT22;4094;49.948;11.574;2022-09-09T07:59:58;20.10;62.10
8103;DHT22;4094;49.948;11.574;2022-09-09T08:02:29;20.10;60.80
8103;DHT22;4094;49.948;11.574;2022-09-09T08:04:59;20.20;60.60
8103;DHT22;4094;49.948;11.574;2022-09-09T08:07:28;20.20;60.50
8103;DHT22;4094;49.948;11.574;2022-09-09T08:09:56;20.30;60.60
8103;DHT22;4094;49.948;11.574;2022-09-09T08:12:30;20.30;60.80
8103;DHT22;4094;49.948;11.574;2022-09-09T08:15:04;20.40;61.20
8103;DHT22;4094;49.948;11.574;2022-09-09T08:17:35;20.50;62.40
8103;DHT22;4094;49.948;11.574;2022-09-09T08:20:07;20.70;61.10
8103;DHT22;4094;49.948;11.574;2022-09-09T08:22:36;20.90;60.80
8103;DHT22;4094;49.948;11.574;2022-09-09T08:25:06;21.10;61.40
8103;DHT22;4094;49.948;11.574;2022-09-09T08:27:37;21.20;61.40
8103;DHT22;4094;49.948;11.574;2022-09-09T08:30:08;21.40;61.30
8103;DHT22;4094;49.948;11.574;2022-09-09T08:32:43;21.60;61.00
8103;DHT22;4094;49.948;11.574;2022-09-09T08:35:14;21.80;60.20
8103;DHT22;4094;49.948;11.574;2022-09-09T08:37:45;22.00;60.30
8103;DHT22;4094;49.948;11.574;2022-09-09T08:40:24;22.20;60.00
8103;DHT22;4094;49.948;11.574;2022-09-09T08:42:57;22.30;59.00
8103;DHT22;4094;49.948;11.574;2022-09-09T08:45:32;22.40;59.20
8103;DHT22;4094;49.948;11.574;2022-09-09T08:48:27;22.50;59.60
8103;DHT22;4094;49.948;11.574;2022-09-09T08:50:57;22.70;59.00
8103;DHT22;4094;49.948;11.574;2022-09-09T08:53:38;22.80;58.30
8103;DHT22;4094;49.948;11.574;2022-09-09T08:56:14;22.90;58.10
8103;DHT22;4094;49.948;11.574;2022-09-09T08:58:49;23.00;57.60
8103;DHT22;4094;49.948;11.574;2022-09-09T09:01:35;23.10;56.60
8103;DHT22;4094;49.948;11.574;2022-09-09T09:04:29;23.10;54.90
8103;DHT22;4094;49.948;11.574;2022-09-09T09:07:09;23.20;55.50
8103;DHT22;4094;49.948;11.574;2022-09-09T09:09:57;23.20;54.80
8103;DHT22;4094;49.948;11.574;2022-09-09T09:12:40;23.20;54.80
8103;DHT22;4094;49.948;11.574;2022-09-09T09:15:18;23.20;54.40
8103;DHT22;4094;49.948;11.574;2022-09-09T09:17:50;23.20;54.30
8103;DHT22;4094;49.948;11.574;2022-09-09T09:20:27;23.20;54.40
8103;DHT22;4094;49.948;11.574;2022-09-09T09:23:02;23.30;54.20
8103;DHT22;4094;49.948;11.574;2022-09-09T09:25:35;23.20;53.90
8103;DHT22;4094;49.948;11.574;2022-09-09T09:28:13;23.30;54.00
8103;DHT22;4094;49.948;11.574;2022-09-09T09:30:51;23.30;53.50
8103;DHT22;4094;49.948;11.574;2022-09-09T09:33:27;23.30;54.00
8103;DHT22;4094;49.948;11.574;2022-09-09T09:35:59;23.40;53.50
8103;DHT22;4094;49.948;11.574;2022-09-09T09:38:29;23.40;53.70
8103;DHT22;4094;49.948;11.574;2022-09-09T09:41:29;23.60;53.40
8103;DHT22;4094;49.948;11.574;2022-09-09T09:43:59;23.60;51.30
8103;DHT22;4094;49.948;11.574;2022-09-09T09:46:29;23.60;51.70
8103;DHT22;4094;49.948;11.574;2022-09-09T09:49:09;23.60;52.40
8103;DHT22;4094;49.948;11.574;2022-09-09T09:51:44;23.60;52.60
8103;DHT22;4094;49.948;11.574;2022-09-09T09:54:20;23.70;52.30
8103;DHT22;4094;49.948;11.574;2022-09-09T09:56:55;23.80;52.90
8103;DHT22;4094;49.948;11.574;2022-09-09T09:59:34;23.90;52.20
8103;DHT22;4094;49.948;11.574;2022-09-09T10:02:16;23.90;51.60
8103;DHT22;4094;49.948;11.574;2022-09-09T10:04:48;24.00;51.70
8103;DHT22;4094;49.948;11.574;2022-09-09T10:07:21;24.10;51.50
8103;DHT22;4094;49.948;11.574;2022-09-09T10:09:53;24.20;51.40
8103;DHT22;4094;49.948;11.574;2022-09-09T10:12:36;24.30;51.10
8103;DHT22;4094;49.948;11.574;2022-09-09T10:15:21;24.40;50.10
8103;DHT22;4094;49.948;11.574;2022-09-09T10:17:59;24.40;50.00
8103;DHT22;4094;49.948;11.574;2022-09-09T10:20:39;24.50;50.00
8103;DHT22;4094;49.948;11.574;2022-09-09T10:23:23;24.40;49.90
8103;DHT22;4094;49.948;11.574;2022-09-09T10:26:12;24.40;49.50
8103;DHT22;4094;49.948;11.574;2022-09-09T10:29:00;24.40;49.10
8103;DHT22;4094;49.948;11.574;2022-09-09T10:31:40;24.30;49.10
8103;DHT22;4094;49.948;11.574;2022-09-09T10:34:19;24.20;49.50
8103;DHT22;4094;49.948;11.574;2022-09-09T10:36:58;24.20;49.30
8103;DHT22;4094;49.948;11.574;2022-09-09T10:39:36;24.20;49.50
8103;DHT22;4094;49.948;11.574;2022-09-09T10:42:12;24.30;49.70
8103;DHT22;4094;49.948;11.574;2022-09-09T10:44:56;24.40;49.70
8103;DHT22;4094;49.948;11.574;2022-09-09T10:47:43;24.40;48.80
8103;DHT22;4094;49.948;11.574;2022-09-09T10:53:42;24.40;49.20
8103;DHT22;4094;49.948;11.574;2022-09-09T10:56:18;24.40;48.90
8103;DHT22;4094;49.948;11.574;2022-09-09T10:58:51;24.40;49.00
8103;DHT22;4094;49.948;11.574;2022-09-09T11:01:25;24.50;49.20
8103;DHT22;4094;49.948;11.574;2022-09-09T11:04:01;24.50;48.50
8103;DHT22;4094;49.948;11.574;2022-09-09T11:06:37;24.60;48.90
8103;DHT22;4094;49.948;11.574;2022-09-09T11:09:14;24.60;49.00
8103;DHT22;4094;49.948;11.574;2022-09-09T11:11:49;24.60;48.80
8103;DHT22;4094;49.948;11.574;2022-09-09T11:14:26;24.60;47.90
8103;DHT22;4094;49.948;11.574;2022-09-09T11:17:08;24.60;48.20
8103;DHT22;4094;49.948;11.574;2022-09-09T11:19:40;24.60;48.20
8103;DHT22;4094;49.948;11.574;2022-09-09T11:22:17;24.50;48.70
8103;DHT22;4094;49.948;11.574;2022-09-09T11:24:53;24.50;49.50
8103;DHT22;4094;49.948;11.574;2022-09-09T11:27:32;24.40;50.10
8103;DHT22;4094;49.948;11.574;2022-09-09T11:30:15;24.30;49.20
8103;DHT22;4094;49.948;11.574;2022-09-09T11:39:05;23.90;51.00
8103;DHT22;4094;49.948;11.574;2022-09-09T11:41:42;23.80;51.50
8103;DHT22;4094;49.948;11.574;2022-09-09T11:44:19;23.80;51.50
8103;DHT22;4094;49.948;11.574;2022-09-09T11:46:50;23.80;52.30
8103;DHT22;4094;49.948;11.574;2022-09-09T11:49:28;23.90;52.90
8103;DHT22;4094;49.948;11.574;2022-09-09T11:51:58;24.10;53.10
8103;DHT22;4094;49.948;11.574;2022-09-09T11:54:30;24.30;52.60
8103;DHT22;4094;49.948;11.574;2022-09-09T11:57:00;24.40;52.10
8103;DHT22;4094;49.948;11.574;2022-09-09T11:59:35;24.60;51.80
8103;DHT22;4094;49.948;11.574;2022-09-09T12:02:14;24.70;51.60
8103;DHT22;4094;49.948;11.574;2022-09-09T12:04:53;24.80;50.90
8103;DHT22;4094;49.948;11.574;2022-09-09T12:07:33;24.80;50.20
8103;DHT22;4094;49.948;11.574;2022-09-09T12:10:20;24.80;49.70
8103;DHT22;4094;49.948;11.574;2022-09-09T12:12:51;24.80;49.50
8103;DHT22;4094;49.948;11.574;2022-09-09T12:15:27;24.70;49.50
8103;DHT22;4094;49.948;11.574;2022-09-09T12:17:58;24.60;50.10
8103;DHT22;4094;49.948;11.574;2022-09-09T12:20:34;24.40;50.50
8103;DHT22;4094;49.948;11.574;2022-09-09T12:23:23;24.20;51.20
8103;DHT22;4094;49.948;11.574;2022-09-09T12:26:25;24.10;51.60
8103;DHT22;4094;49.948;11.574;2022-09-09T12:29:12;23.90;51.80
8103;DHT22;4094;49.948;11.574;2022-09-09T12:31:47;23.80;52.30
8103;DHT22;4094;49.948;11.574;2022-09-09T12:34:31;23.80;53.50
8103;DHT22;4094;49.948;11.574;2022-09-09T12:37:11;23.90;54.00
8103;DHT22;4094;49.948;11.574;2022-09-09T12:39:45;24.30;54.20
8103;DHT22;4094;49.948;11.574;2022-09-09T12:42:18;24.80;53.60
8103;DHT22;4094;49.948;11.574;2022-09-09T12:44:55;25.40;53.50
8103;DHT22;4094;49.948;11.574;2022-09-09T12:47:34;26.30;52.80
8103;DHT22;4094;49.948;11.574;2022-09-09T12:50:16;26.90;51.50
8103;DHT22;4094;49.948;11.574;2022-09-09T12:52:46;27.40;50.30
8103;DHT22;4094;49.948;11.574;2022-09-09T12:55:20;27.60;48.70
8103;DHT22;4094;49.948;11.574;2022-09-09T12:57:52;27.70;48.70
8103;DHT22;4094;49.948;11.574;2022-09-09T13:00:23;27.60;47.80
8103;DHT22;4094;49.948;11.574;2022-09-09T13:02:56;27.50;48.00
8103;DHT22;4094;49.948;11.574;2022-09-09T13:05:26;27.40;48.10
8103;DHT22;4094;49.948;11.574;2022-09-09T13:08:01;27.20;48.00
8103;DHT22;4094;49.948;11.574;2022-09-09T13:10:33;27.00;48.30
8103;DHT22;4094;49.948;11.574;2022-09-09T13:13:23;26.80;48.30
8103;DHT22;4094;49.948;11.574;2022-09-09T13:15:57;26.60;48.80
8103;DHT22;4094;49.948;11.574;2022-09-09T13:18:29;26.30;49.40
8103;DHT22;4094;49.948;11.574;2022-09-09T13:20:59;26.10;50.00
8103;DHT22;4094;49.948;11.574;2022-09-09T13:23:31;26.00;49.40
8103;DHT22;4094;49.948;11.574;2022-09-09T13:26:02;25.80;49.90
8103;DHT22;4094;49.948;11.574;2022-09-09T13:28:32;25.70;49.30
8103;DHT22;4094;49.948;11.574;2022-09-09T13:31:04;25.60;48.10
8103;DHT22;4094;49.948;11.574;2022-09-09T13:33:37;25.50;47.70
8103;DHT22;4094;49.948;11.574;2022-09-09T13:36:08;25.40;47.90
8103;DHT22;4094;49.948;11.574;2022-09-09T13:38:40;25.30;46.90
8103;DHT22;4094;49.948;11.574;2022-09-09T13:41:10;25.20;47.10
8103;DHT22;4094;49.948;11.574;2022-09-09T13:43:43;25.10;46.70
8103;DHT22;4094;49.948;11.574;2022-09-09T13:46:31;25.10;46.50
8103;DHT22;4094;49.948;11.574;2022-09-09T13:49:19;25.00;47.00
8103;DHT22;4094;49.948;11.574;2022-09-09T13:51:49;24.90;46.60
8103;DHT22;4094;49.948;11.574;2022-09-09T13:54:21;24.90;46.60
8103;DHT22;4094;49.948;11.574;2022-09-09T13:56:50;24.80;46.40
8103;DHT22;4094;49.948;11.574;2022-09-09T13:59:23;24.80;46.10
8103;DHT22;4094;49.948;11.574;2022-09-09T14:02:13;24.80;45.80
8103;DHT22;4094;49.948;11.574;2022-09-09T14:04:44;24.80;45.90
8103;DHT22;4094;49.948;11.574;2022-09-09T14:07:14;24.70;45.80
8103;DHT22;4094;49.948;11.574;2022-09-09T14:09:44;24.70;45.60
8103;DHT22;4094;49.948;11.574;2022-09-09T14:12:17;24.70;45.90
8103;DHT22;4094;49.948;11.574;2022-09-09T14:14:48;24.70;45.90
8103;DHT22;4094;49.948;11.574;2022-09-09T14:17:17;24.70;45.80
8103;DHT22;4094;49.948;11.574;2022-09-09T14:19:47;24.70;45.60
8103;DHT22;4094;49.948;11.574;2022-09-09T14:22:16;24.70;45.60
8103;DHT22;4094;49.948;11.574;2022-09-09T14:24:46;24.80;45.50
8103;DHT22;4094;49.948;11.574;2022-09-09T14:27:16;24.70;45.40
8103;DHT22;4094;49.948;11.574;2022-09-09T14:29:46;24.80;45.20
8103;DHT22;4094;49.948;11.574;2022-09-09T14:32:15;24.70;44.90
8103;DHT22;4094;49.948;11.574;2022-09-09T14:34:44;24.70;45.20
8103;DHT22;4094;49.948;11.574;2022-09-09T14:37:18;24.60;45.10
8103;DHT22;4094;49.948;11.574;2022-09-09T14:39:48;24.60;45.10
8103;DHT22;4094;49.948;11.574;2022-09-09T14:42:18;24.60;44.90
8103;DHT22;4094;49.948;11.574;2022-09-09T14:44:47;24.60;45.10
8103;DHT22;4094;49.948;11.574;2022-09-09T14:47:16;24.50;45.20
8103;DHT22;4094;49.948;11.574;2022-09-09T14:49:45;24.50;45.60
8103;DHT22;4094;49.948;11.574;2022-09-09T14:52:18;24.50;46.00
8103;DHT22;4094;49.948;11.574;2022-09-09T14:54:48;24.40;45.20
8103;DHT22;4094;49.948;11.574;2022-09-09T14:57:17;24.40;45.20
8103;DHT22;4094;49.948;11.574;2022-09-09T14:59:46;24.30;45.20
8103;DHT22;4094;49.948;11.574;2022-09-09T15:02:18;24.30;45.60
8103;DHT22;4094;49.948;11.574;2022-09-09T15:04:47;24.20;45.90
8103;DHT22;4094;49.948;11.574;2022-09-09T15:07:18;24.20;45.70
8103;DHT22;4094;49.948;11.574;2022-09-09T15:09:47;24.20;45.40
8103;DHT22;4094;49.948;11.574;2022-09-09T15:12:17;24.10;45.60
8103;DHT22;4094;49.948;11.574;2022-09-09T15:14:47;24.10;45.60
8103;DHT22;4094;49.948;11.574;2022-09-09T15:17:16;24.00;45.60
8103;DHT22;4094;49.948;11.574;2022-09-09T15:19:45;23.90;45.70
8103;DHT22;4094;49.948;11.574;2022-09-09T15:22:14;23.90;45.90
8103;DHT22;4094;49.948;11.574;2022-09-09T15:24:45;23.80;46.10
8103;DHT22;4094;49.948;11.574;2022-09-09T15:27:15;23.80;46.30
8103;DHT22;4094;49.948;11.574;2022-09-09T15:29:46;23.70;46.40
8103;DHT22;4094;49.948;11.574;2022-09-09T15:32:16;23.70;46.60
8103;DHT22;4094;49.948;11.574;2022-09-09T15:34:46;23.70;46.80
8103;DHT22;4094;49.948;11.574;2022-09-09T15:37:15;23.70;46.70
8103;DHT22;4094;49.948;11.574;2022-09-09T15:39:46;23.60;46.70
8103;DHT22;4094;49.948;11.574;2022-09-09T15:42:15;23.70;46.80
8103;DHT22;4094;49.948;11.574;2022-09-09T15:44:44;23.70;46.70
8103;DHT22;4094;49.948;11.574;2022-09-09T15:47:13;23.60;46.40
8103;DHT22;4094;49.948;11.574;2022-09-09T15:49:43;23.60;46.60
8103;DHT22;4094;49.948;11.574;2022-09-09T15:52:12;23.60;46.70
8103;DHT22;4094;49.948;11.574;2022-09-09T15:54:41;23.60;46.70
8103;DHT22;4094;49.948;11.574;2022-09-09T15:57:13;23.60;46.70
8103;DHT22;4094;49.948;11.574;2022-09-09T15:59:42;23.60;46.50
8103;DHT22;4094;49.948;11.574;2022-09-09T16:02:12;23.60;46.80
8103;DHT22;4094;49.948;11.574;2022-09-09T16:04:41;23.60;46.90
8103;DHT22;4094;49.948;11.574;2022-09-09T16:07:10;23.60;47.10
8103;DHT22;4094;49.948;11.574;2022-09-09T16:09:39;23.60;47.10
8103;DHT22;4094;49.948;11.574;2022-09-09T16:12:09;23.60;47.00
8103;DHT22;4094;49.948;11.574;2022-09-09T16:14:42;23.50;46.90
8103;DHT22;4094;49.948;11.574;2022-09-09T16:17:12;23.50;46.90
8103;DHT22;4094;49.948;11.574;2022-09-09T16:19:41;23.50;47.80
8103;DHT22;4094;49.948;11.574;2022-09-09T16:22:10;23.50;48.80
8103;DHT22;4094;49.948;11.574;2022-09-09T16:24:39;23.50;49.40
8103;DHT22;4094;49.948;11.574;2022-09-09T16:27:08;23.40;49.90
8103;DHT22;4094;49.948;11.574;2022-09-09T16:29:38;23.40;50.50
8103;DHT22;4094;49.948;11.574;2022-09-09T16:32:09;23.40;50.70
8103;DHT22;4094;49.948;11.574;2022-09-09T16:34:37;23.30;50.70
8103;DHT22;4094;49.948;11.574;2022-09-09T16:37:06;23.30;50.80
8103;DHT22;4094;49.948;11.574;2022-09-09T16:39:35;23.20;51.10